This is the latest recevied weather packets stored in our database for station/object KO6HRZ. If no packets are shown the sender has not sent any weather packets the latest 10 day(s).
| Time | Temp. | Humidity | Pressure | Rain* | Wind** | Luminosity | Snow |
|---|---|---|---|---|---|---|---|
| 1777142449 | 17.22° C | 66% | 1012 hPa | 0 mm | - | 432 W/m² | - |
| 1777141845 | 17.22° C | 66% | 1012 hPa | 0 mm | - | 436 W/m² | - |
| 1777141242 | 17.78° C | 68% | 1011.9 hPa | 0 mm | - | 348 W/m² | - |
| 1777140640 | 17.22° C | 66% | 1011.8 hPa | 0 mm | - | 565 W/m² | - |
| 1777140035 | 16.67° C | 68% | 1011.9 hPa | 0 mm | - | 333 W/m² | - |
| 1777139433 | 16.11° C | 69% | 1011.9 hPa | 0 mm | - | 346 W/m² | - |
| 1777138832 | 16.67° C | 69% | 1011.9 hPa | 0 mm | - | 378 W/m² | - |
| 1777138229 | 15.56° C | 72% | 1011.9 hPa | 0 mm | - | 349 W/m² | - |
| 1777137627 | 15.56° C | 71% | 1011.9 hPa | 0 mm | - | 414 W/m² | - |
| 1777137028 | 15.56° C | 73% | 1011.7 hPa | 0 mm | - | 238 W/m² | - |
| 1777136428 | 15° C | 75% | 1011.8 hPa | 0 mm | - | 263 W/m² | - |
| 1777135827 | 15° C | 76% | 1011.8 hPa | 0 mm | - | 349 W/m² | - |
| 1777135225 | 14.44° C | 78% | 1011.7 hPa | 0 mm | - | 232 W/m² | - |
| 1777134626 | 14.44° C | 81% | 1011.7 hPa | 0 mm | - | 168 W/m² | - |
| 1777134024 | 13.89° C | 82% | 1011.6 hPa | 0 mm | - | 190 W/m² | - |
| 1777133420 | 13.89° C | 82% | 1011.6 hPa | 0 mm | - | 226 W/m² | - |
| 1777132817 | 13.33° C | 83% | 1011.6 hPa | 0 mm | - | 215 W/m² | - |
| 1777132216 | 13.33° C | 83% | 1011.4 hPa | 0 mm | - | 206 W/m² | - |
| 1777131616 | 12.78° C | 84% | 1011.3 hPa | 0 mm | - | 180 W/m² | - |
| 1777131016 | 12.78° C | 85% | 1011.4 hPa | 0 mm | - | 176 W/m² | - |
| 1777130414 | 12.22° C | 86% | 1011.4 hPa | 0 mm | - | 168 W/m² | - |
| 1777129812 | 11.67° C | 87% | 1011.3 hPa | 0 mm | - | 130 W/m² | - |
| 1777129212 | 11.67° C | 88% | 1011.3 hPa | 0 mm | - | 117 W/m² | - |
| 1777128611 | 11.11° C | 89% | 1011.2 hPa | 0 mm | - | 112 W/m² | - |
| 1777128011 | 10.56° C | 90% | 1011.2 hPa | 0 mm | - | 90 W/m² | - |
* Rain latest hour (hover to see other rain measurements)
** Current wind speed in m/s (hover to see current wind gust speed)